sensor_id;sensor_type;location;lat;lon;timestamp;P1;durP1;ratioP1;P2;durP2;ratioP2
78167;SDS011;67410;42.698;23.378;2024-03-06T00:02:05;43.58;;;18.38;;
78167;SDS011;67410;42.698;23.378;2024-03-06T00:04:33;42.35;;;17.50;;
78167;SDS011;67410;42.698;23.378;2024-03-06T00:06:59;48.45;;;19.92;;
78167;SDS011;67410;42.698;23.378;2024-03-06T00:09:25;38.85;;;17.02;;
78167;SDS011;67410;42.698;23.378;2024-03-06T00:11:57;42.97;;;18.77;;
78167;SDS011;67410;42.698;23.378;2024-03-06T00:14:23;57.42;;;20.90;;
78167;SDS011;67410;42.698;23.378;2024-03-06T00:16:50;45.97;;;19.48;;
78167;SDS011;67410;42.698;23.378;2024-03-06T00:19:19;36.67;;;14.85;;
78167;SDS011;67410;42.698;23.378;2024-03-06T00:21:48;38.45;;;16.30;;
78167;SDS011;67410;42.698;23.378;2024-03-06T00:24:15;35.67;;;15.68;;
78167;SDS011;67410;42.698;23.378;2024-03-06T00:26:42;31.45;;;14.90;;
78167;SDS011;67410;42.698;23.378;2024-03-06T00:29:10;34.53;;;14.15;;
78167;SDS011;67410;42.698;23.378;2024-03-06T00:31:36;27.02;;;12.07;;
78167;SDS011;67410;42.698;23.378;2024-03-06T00:34:07;24.98;;;12.85;;
78167;SDS011;67410;42.698;23.378;2024-03-06T00:36:34;28.17;;;12.05;;
78167;SDS011;67410;42.698;23.378;2024-03-06T00:39:00;26.95;;;12.77;;
78167;SDS011;67410;42.698;23.378;2024-03-06T00:41:26;28.35;;;14.00;;
78167;SDS011;67410;42.698;23.378;2024-03-06T00:43:52;29.70;;;13.00;;
78167;SDS011;67410;42.698;23.378;2024-03-06T00:46:18;27.90;;;13.00;;
78167;SDS011;67410;42.698;23.378;2024-03-06T00:48:44;29.80;;;13.13;;
78167;SDS011;67410;42.698;23.378;2024-03-06T00:51:10;27.77;;;13.40;;
78167;SDS011;67410;42.698;23.378;2024-03-06T00:53:37;22.92;;;11.88;;
78167;SDS011;67410;42.698;23.378;2024-03-06T00:56:03;33.03;;;12.57;;
78167;SDS011;67410;42.698;23.378;2024-03-06T00:58:30;25.58;;;12.55;;
78167;SDS011;67410;42.698;23.378;2024-03-06T01:00:56;28.42;;;12.88;;
78167;SDS011;67410;42.698;23.378;2024-03-06T01:03:24;31.17;;;13.32;;
78167;SDS011;67410;42.698;23.378;2024-03-06T01:05:50;26.48;;;13.32;;
78167;SDS011;67410;42.698;23.378;2024-03-06T01:08:23;31.73;;;13.60;;
78167;SDS011;67410;42.698;23.378;2024-03-06T01:10:53;33.42;;;14.13;;
78167;SDS011;67410;42.698;23.378;2024-03-06T01:13:19;28.20;;;13.90;;
78167;SDS011;67410;42.698;23.378;2024-03-06T01:15:46;31.95;;;13.55;;
78167;SDS011;67410;42.698;23.378;2024-03-06T01:18:12;107.65;;;42.33;;
78167;SDS011;67410;42.698;23.378;2024-03-06T01:20:38;40.08;;;18.02;;
78167;SDS011;67410;42.698;23.378;2024-03-06T01:23:05;26.40;;;13.70;;
78167;SDS011;67410;42.698;23.378;2024-03-06T01:25:32;27.15;;;13.55;;
78167;SDS011;67410;42.698;23.378;2024-03-06T01:27:58;28.73;;;13.73;;
78167;SDS011;67410;42.698;23.378;2024-03-06T01:30:24;43.97;;;18.50;;
78167;SDS011;67410;42.698;23.378;2024-03-06T01:32:50;52.78;;;18.33;;
78167;SDS011;67410;42.698;23.378;2024-03-06T01:35:16;45.88;;;20.40;;
78167;SDS011;67410;42.698;23.378;2024-03-06T01:37:42;46.80;;;18.30;;
78167;SDS011;67410;42.698;23.378;2024-03-06T01:40:09;36.97;;;16.85;;
78167;SDS011;67410;42.698;23.378;2024-03-06T01:42:36;42.20;;;18.15;;
78167;SDS011;67410;42.698;23.378;2024-03-06T01:45:03;35.70;;;15.10;;
78167;SDS011;67410;42.698;23.378;2024-03-06T01:47:30;42.38;;;17.13;;
78167;SDS011;67410;42.698;23.378;2024-03-06T01:49:56;61.45;;;21.27;;
78167;SDS011;67410;42.698;23.378;2024-03-06T01:52:22;58.03;;;20.00;;
78167;SDS011;67410;42.698;23.378;2024-03-06T01:54:49;77.43;;;28.02;;
78167;SDS011;67410;42.698;23.378;2024-03-06T01:57:16;63.45;;;23.90;;
78167;SDS011;67410;42.698;23.378;2024-03-06T01:59:44;33.47;;;16.73;;
78167;SDS011;67410;42.698;23.378;2024-03-06T02:02:11;40.05;;;19.45;;
78167;SDS011;67410;42.698;23.378;2024-03-06T02:04:40;67.43;;;27.15;;
78167;SDS011;67410;42.698;23.378;2024-03-06T02:07:09;60.38;;;25.23;;
78167;SDS011;67410;42.698;23.378;2024-03-06T02:09:39;47.28;;;20.52;;
78167;SDS011;67410;42.698;23.378;2024-03-06T02:12:06;42.40;;;19.60;;
78167;SDS011;67410;42.698;23.378;2024-03-06T02:17:02;38.00;;;16.42;;
78167;SDS011;67410;42.698;23.378;2024-03-06T02:19:41;37.80;;;16.35;;
78167;SDS011;67410;42.698;23.378;2024-03-06T02:22:09;39.55;;;16.65;;
78167;SDS011;67410;42.698;23.378;2024-03-06T02:24:36;35.75;;;16.05;;
78167;SDS011;67410;42.698;23.378;2024-03-06T02:27:03;36.53;;;18.20;;
78167;SDS011;67410;42.698;23.378;2024-03-06T02:29:33;34.38;;;15.50;;
78167;SDS011;67410;42.698;23.378;2024-03-06T02:31:59;37.45;;;16.33;;
78167;SDS011;67410;42.698;23.378;2024-03-06T02:34:28;35.17;;;16.40;;
78167;SDS011;67410;42.698;23.378;2024-03-06T02:36:55;41.90;;;16.20;;
78167;SDS011;67410;42.698;23.378;2024-03-06T02:39:22;37.42;;;16.20;;
78167;SDS011;67410;42.698;23.378;2024-03-06T02:41:48;33.92;;;17.80;;
78167;SDS011;67410;42.698;23.378;2024-03-06T02:44:14;37.83;;;16.75;;
78167;SDS011;67410;42.698;23.378;2024-03-06T02:46:46;33.85;;;14.73;;
78167;SDS011;67410;42.698;23.378;2024-03-06T02:49:15;86.22;;;33.90;;
78167;SDS011;67410;42.698;23.378;2024-03-06T02:51:42;78.07;;;31.90;;
78167;SDS011;67410;42.698;23.378;2024-03-06T02:54:08;53.22;;;21.45;;
78167;SDS011;67410;42.698;23.378;2024-03-06T02:56:34;44.95;;;18.02;;
78167;SDS011;67410;42.698;23.378;2024-03-06T02:59:00;45.67;;;20.45;;
78167;SDS011;67410;42.698;23.378;2024-03-06T03:01:29;49.50;;;19.15;;
78167;SDS011;67410;42.698;23.378;2024-03-06T03:03:55;42.42;;;18.45;;
78167;SDS011;67410;42.698;23.378;2024-03-06T03:06:23;49.58;;;19.75;;
78167;SDS011;67410;42.698;23.378;2024-03-06T03:08:52;34.63;;;16.75;;
78167;SDS011;67410;42.698;23.378;2024-03-06T03:11:18;41.17;;;18.60;;
78167;SDS011;67410;42.698;23.378;2024-03-06T03:13:44;41.00;;;19.08;;
78167;SDS011;67410;42.698;23.378;2024-03-06T03:16:17;37.58;;;18.00;;
78167;SDS011;67410;42.698;23.378;2024-03-06T03:18:44;40.67;;;17.50;;
78167;SDS011;67410;42.698;23.378;2024-03-06T03:21:12;48.90;;;18.27;;
78167;SDS011;67410;42.698;23.378;2024-03-06T03:23:40;47.55;;;20.33;;
78167;SDS011;67410;42.698;23.378;2024-03-06T03:26:07;50.13;;;19.95;;
78167;SDS011;67410;42.698;23.378;2024-03-06T03:28:39;46.83;;;20.25;;
78167;SDS011;67410;42.698;23.378;2024-03-06T03:31:09;42.63;;;17.98;;
78167;SDS011;67410;42.698;23.378;2024-03-06T03:33:38;42.38;;;19.23;;
78167;SDS011;67410;42.698;23.378;2024-03-06T03:36:05;41.30;;;18.52;;
78167;SDS011;67410;42.698;23.378;2024-03-06T03:38:33;38.60;;;17.70;;
78167;SDS011;67410;42.698;23.378;2024-03-06T03:41:09;44.85;;;19.90;;
78167;SDS011;67410;42.698;23.378;2024-03-06T03:43:39;47.50;;;19.00;;
78167;SDS011;67410;42.698;23.378;2024-03-06T03:46:06;49.05;;;19.30;;
78167;SDS011;67410;42.698;23.378;2024-03-06T03:48:32;34.90;;;17.35;;
78167;SDS011;67410;42.698;23.378;2024-03-06T03:51:01;41.08;;;17.20;;
78167;SDS011;67410;42.698;23.378;2024-03-06T03:53:32;34.88;;;16.58;;
78167;SDS011;67410;42.698;23.378;2024-03-06T03:55:59;32.20;;;15.63;;
78167;SDS011;67410;42.698;23.378;2024-03-06T03:58:25;40.20;;;16.25;;
78167;SDS011;67410;42.698;23.378;2024-03-06T04:00:51;35.88;;;16.08;;
78167;SDS011;67410;42.698;23.378;2024-03-06T04:03:21;32.50;;;16.25;;
78167;SDS011;67410;42.698;23.378;2024-03-06T04:05:48;32.92;;;16.27;;
78167;SDS011;67410;42.698;23.378;2024-03-06T04:08:14;38.30;;;17.10;;
78167;SDS011;67410;42.698;23.378;2024-03-06T04:10:44;36.58;;;17.90;;
78167;SDS011;67410;42.698;23.378;2024-03-06T04:13:11;39.45;;;17.83;;
78167;SDS011;67410;42.698;23.378;2024-03-06T04:15:38;49.25;;;20.55;;
78167;SDS011;67410;42.698;23.378;2024-03-06T04:18:04;50.05;;;19.90;;
78167;SDS011;67410;42.698;23.378;2024-03-06T04:20:30;43.80;;;17.88;;
78167;SDS011;67410;42.698;23.378;2024-03-06T04:22:56;43.15;;;16.70;;
78167;SDS011;67410;42.698;23.378;2024-03-06T04:25:22;44.80;;;18.98;;
78167;SDS011;67410;42.698;23.378;2024-03-06T04:27:49;47.22;;;20.52;;
78167;SDS011;67410;42.698;23.378;2024-03-06T04:30:15;42.33;;;20.23;;
78167;SDS011;67410;42.698;23.378;2024-03-06T04:32:41;42.85;;;20.52;;
78167;SDS011;67410;42.698;23.378;2024-03-06T04:35:07;41.45;;;17.95;;
78167;SDS011;67410;42.698;23.378;2024-03-06T04:37:37;47.20;;;19.33;;
78167;SDS011;67410;42.698;23.378;2024-03-06T04:40:03;43.05;;;18.40;;
78167;SDS011;67410;42.698;23.378;2024-03-06T04:42:34;41.08;;;18.65;;
78167;SDS011;67410;42.698;23.378;2024-03-06T04:45:02;45.15;;;18.75;;
78167;SDS011;67410;42.698;23.378;2024-03-06T04:47:36;40.78;;;20.80;;
78167;SDS011;67410;42.698;23.378;2024-03-06T04:50:02;48.40;;;22.17;;
78167;SDS011;67410;42.698;23.378;2024-03-06T04:52:29;45.78;;;19.98;;
78167;SDS011;67410;42.698;23.378;2024-03-06T04:54:55;68.93;;;29.48;;
78167;SDS011;67410;42.698;23.378;2024-03-06T04:57:22;55.22;;;28.92;;
78167;SDS011;67410;42.698;23.378;2024-03-06T04:59:48;52.83;;;25.73;;
78167;SDS011;67410;42.698;23.378;2024-03-06T05:02:14;48.40;;;22.38;;
78167;SDS011;67410;42.698;23.378;2024-03-06T05:04:40;49.90;;;23.95;;
78167;SDS011;67410;42.698;23.378;2024-03-06T05:07:06;63.55;;;27.35;;
78167;SDS011;67410;42.698;23.378;2024-03-06T05:09:32;52.47;;;26.13;;
78167;SDS011;67410;42.698;23.378;2024-03-06T05:12:00;65.88;;;28.45;;
78167;SDS011;67410;42.698;23.378;2024-03-06T05:14:26;56.92;;;25.80;;
78167;SDS011;67410;42.698;23.378;2024-03-06T05:16:52;59.55;;;27.90;;
78167;SDS011;67410;42.698;23.378;2024-03-06T05:19:18;54.78;;;29.10;;
78167;SDS011;67410;42.698;23.378;2024-03-06T05:21:45;59.42;;;27.05;;
78167;SDS011;67410;42.698;23.378;2024-03-06T05:24:11;55.92;;;24.70;;
78167;SDS011;67410;42.698;23.378;2024-03-06T05:26:37;57.30;;;26.40;;
78167;SDS011;67410;42.698;23.378;2024-03-06T05:29:04;65.78;;;30.15;;
78167;SDS011;67410;42.698;23.378;2024-03-06T05:31:30;74.18;;;30.05;;
78167;SDS011;67410;42.698;23.378;2024-03-06T05:33:56;74.75;;;32.97;;
78167;SDS011;67410;42.698;23.378;2024-03-06T05:36:22;78.13;;;31.65;;
78167;SDS011;67410;42.698;23.378;2024-03-06T05:38:48;75.07;;;32.85;;
78167;SDS011;67410;42.698;23.378;2024-03-06T05:41:15;70.90;;;27.45;;
78167;SDS011;67410;42.698;23.378;2024-03-06T05:43:43;50.13;;;25.73;;
78167;SDS011;67410;42.698;23.378;2024-03-06T05:46:09;52.00;;;23.52;;
78167;SDS011;67410;42.698;23.378;2024-03-06T05:48:36;47.58;;;23.42;;
78167;SDS011;67410;42.698;23.378;2024-03-06T05:51:03;39.67;;;15.85;;
78167;SDS011;67410;42.698;23.378;2024-03-06T05:53:29;35.47;;;15.73;;
78167;SDS011;67410;42.698;23.378;2024-03-06T05:55:56;38.03;;;16.30;;
78167;SDS011;67410;42.698;23.378;2024-03-06T05:58:22;34.20;;;15.45;;
78167;SDS011;67410;42.698;23.378;2024-03-06T06:00:49;36.30;;;15.07;;
78167;SDS011;67410;42.698;23.378;2024-03-06T06:03:15;38.65;;;15.10;;
78167;SDS011;67410;42.698;23.378;2024-03-06T06:05:41;34.88;;;16.02;;
78167;SDS011;67410;42.698;23.378;2024-03-06T06:08:07;34.13;;;15.13;;
78167;SDS011;67410;42.698;23.378;2024-03-06T06:10:33;37.92;;;16.10;;
78167;SDS011;67410;42.698;23.378;2024-03-06T06:13:00;38.13;;;16.63;;
78167;SDS011;67410;42.698;23.378;2024-03-06T06:15:28;33.15;;;15.18;;
78167;SDS011;67410;42.698;23.378;2024-03-06T06:17:54;38.42;;;17.08;;
78167;SDS011;67410;42.698;23.378;2024-03-06T06:20:20;37.50;;;16.95;;
78167;SDS011;67410;42.698;23.378;2024-03-06T06:22:46;32.33;;;15.63;;
78167;SDS011;67410;42.698;23.378;2024-03-06T06:25:12;36.80;;;16.50;;
78167;SDS011;67410;42.698;23.378;2024-03-06T06:27:39;40.38;;;15.95;;
78167;SDS011;67410;42.698;23.378;2024-03-06T06:30:05;43.72;;;18.27;;
78167;SDS011;67410;42.698;23.378;2024-03-06T06:32:37;45.80;;;18.27;;
78167;SDS011;67410;42.698;23.378;2024-03-06T06:35:04;38.05;;;16.27;;
78167;SDS011;67410;42.698;23.378;2024-03-06T06:37:30;44.97;;;17.85;;
78167;SDS011;67410;42.698;23.378;2024-03-06T06:39:57;39.63;;;18.77;;
78167;SDS011;67410;42.698;23.378;2024-03-06T06:42:24;44.83;;;18.75;;
78167;SDS011;67410;42.698;23.378;2024-03-06T06:44:50;39.10;;;18.00;;
78167;SDS011;67410;42.698;23.378;2024-03-06T06:47:17;37.75;;;18.25;;
78167;SDS011;67410;42.698;23.378;2024-03-06T06:49:43;33.63;;;16.17;;
78167;SDS011;67410;42.698;23.378;2024-03-06T06:52:10;33.30;;;15.55;;
78167;SDS011;67410;42.698;23.378;2024-03-06T06:54:36;30.83;;;13.68;;
78167;SDS011;67410;42.698;23.378;2024-03-06T06:57:02;34.67;;;16.23;;
78167;SDS011;67410;42.698;23.378;2024-03-06T06:59:28;31.35;;;14.27;;
78167;SDS011;67410;42.698;23.378;2024-03-06T07:01:55;36.38;;;15.48;;
78167;SDS011;67410;42.698;23.378;2024-03-06T07:04:21;29.20;;;14.75;;
78167;SDS011;67410;42.698;23.378;2024-03-06T07:06:47;33.50;;;17.35;;
78167;SDS011;67410;42.698;23.378;2024-03-06T07:09:14;32.83;;;15.65;;
78167;SDS011;67410;42.698;23.378;2024-03-06T07:11:41;30.90;;;14.60;;
78167;SDS011;67410;42.698;23.378;2024-03-06T07:14:08;32.28;;;14.80;;
78167;SDS011;67410;42.698;23.378;2024-03-06T07:16:34;32.28;;;16.45;;
78167;SDS011;67410;42.698;23.378;2024-03-06T07:19:00;35.30;;;16.52;;
78167;SDS011;67410;42.698;23.378;2024-03-06T07:21:27;31.77;;;14.65;;
78167;SDS011;67410;42.698;23.378;2024-03-06T07:23:53;27.42;;;15.48;;
78167;SDS011;67410;42.698;23.378;2024-03-06T07:26:19;33.47;;;14.50;;
78167;SDS011;67410;42.698;23.378;2024-03-06T07:28:45;32.45;;;13.77;;
78167;SDS011;67410;42.698;23.378;2024-03-06T07:31:11;34.05;;;15.40;;
78167;SDS011;67410;42.698;23.378;2024-03-06T07:33:37;31.42;;;14.98;;
78167;SDS011;67410;42.698;23.378;2024-03-06T07:36:04;34.70;;;15.18;;
78167;SDS011;67410;42.698;23.378;2024-03-06T07:38:30;27.50;;;14.27;;
78167;SDS011;67410;42.698;23.378;2024-03-06T07:40:56;28.42;;;13.07;;
78167;SDS011;67410;42.698;23.378;2024-03-06T07:43:22;27.25;;;13.07;;
78167;SDS011;67410;42.698;23.378;2024-03-06T07:45:48;30.25;;;14.13;;
78167;SDS011;67410;42.698;23.378;2024-03-06T07:48:15;31.55;;;14.20;;
78167;SDS011;67410;42.698;23.378;2024-03-06T07:50:41;25.15;;;12.20;;
78167;SDS011;67410;42.698;23.378;2024-03-06T07:53:07;29.13;;;14.07;;
78167;SDS011;67410;42.698;23.378;2024-03-06T07:55:33;30.77;;;14.13;;
78167;SDS011;67410;42.698;23.378;2024-03-06T07:57:59;26.20;;;13.77;;
78167;SDS011;67410;42.698;23.378;2024-03-06T08:00:25;22.88;;;12.02;;
78167;SDS011;67410;42.698;23.378;2024-03-06T08:02:52;24.13;;;12.70;;
78167;SDS011;67410;42.698;23.378;2024-03-06T08:05:19;30.42;;;14.82;;
78167;SDS011;67410;42.698;23.378;2024-03-06T08:07:46;27.55;;;13.68;;
78167;SDS011;67410;42.698;23.378;2024-03-06T08:10:13;26.33;;;13.07;;
78167;SDS011;67410;42.698;23.378;2024-03-06T08:12:40;33.97;;;14.05;;
78167;SDS011;67410;42.698;23.378;2024-03-06T08:15:07;29.02;;;13.25;;
78167;SDS011;67410;42.698;23.378;2024-03-06T08:17:43;27.83;;;14.02;;
78167;SDS011;67410;42.698;23.378;2024-03-06T08:20:09;26.77;;;13.27;;
78167;SDS011;67410;42.698;23.378;2024-03-06T08:22:38;32.83;;;14.65;;
78167;SDS011;67410;42.698;23.378;2024-03-06T08:27:35;30.67;;;14.85;;
78167;SDS011;67410;42.698;23.378;2024-03-06T08:30:03;27.25;;;13.52;;
78167;SDS011;67410;42.698;23.378;2024-03-06T08:32:32;38.38;;;14.63;;
78167;SDS011;67410;42.698;23.378;2024-03-06T08:35:03;35.30;;;16.48;;
78167;SDS011;67410;42.698;23.378;2024-03-06T08:37:40;27.13;;;14.60;;
78167;SDS011;67410;42.698;23.378;2024-03-06T08:40:07;28.73;;;14.15;;
78167;SDS011;67410;42.698;23.378;2024-03-06T08:42:36;32.72;;;15.27;;
78167;SDS011;67410;42.698;23.378;2024-03-06T08:45:03;30.08;;;14.73;;
78167;SDS011;67410;42.698;23.378;2024-03-06T08:47:29;25.73;;;13.73;;
78167;SDS011;67410;42.698;23.378;2024-03-06T08:49:55;30.90;;;14.63;;
78167;SDS011;67410;42.698;23.378;2024-03-06T08:52:21;32.20;;;15.18;;
78167;SDS011;67410;42.698;23.378;2024-03-06T08:54:48;29.30;;;14.32;;
78167;SDS011;67410;42.698;23.378;2024-03-06T08:57:14;32.38;;;15.60;;
78167;SDS011;67410;42.698;23.378;2024-03-06T08:59:40;27.83;;;13.40;;
78167;SDS011;67410;42.698;23.378;2024-03-06T09:02:16;27.35;;;13.70;;
78167;SDS011;67410;42.698;23.378;2024-03-06T09:04:44;23.17;;;12.98;;
78167;SDS011;67410;42.698;23.378;2024-03-06T09:07:11;34.75;;;14.23;;
78167;SDS011;67410;42.698;23.378;2024-03-06T09:09:38;29.23;;;15.27;;
78167;SDS011;67410;42.698;23.378;2024-03-06T09:12:05;29.13;;;14.65;;
78167;SDS011;67410;42.698;23.378;2024-03-06T09:14:32;22.08;;;11.23;;
78167;SDS011;67410;42.698;23.378;2024-03-06T09:16:59;22.10;;;11.52;;
78167;SDS011;67410;42.698;23.378;2024-03-06T09:19:26;18.17;;;10.65;;
78167;SDS011;67410;42.698;23.378;2024-03-06T09:21:52;25.80;;;11.48;;
78167;SDS011;67410;42.698;23.378;2024-03-06T09:24:20;21.00;;;11.30;;
78167;SDS011;67410;42.698;23.378;2024-03-06T09:26:48;20.20;;;11.30;;
78167;SDS011;67410;42.698;23.378;2024-03-06T09:29:15;23.33;;;11.45;;
78167;SDS011;67410;42.698;23.378;2024-03-06T09:31:42;23.73;;;11.32;;
78167;SDS011;67410;42.698;23.378;2024-03-06T09:34:08;29.58;;;12.18;;
78167;SDS011;67410;42.698;23.378;2024-03-06T09:36:41;20.48;;;10.05;;
78167;SDS011;67410;42.698;23.378;2024-03-06T09:39:11;22.60;;;10.35;;
78167;SDS011;67410;42.698;23.378;2024-03-06T09:41:38;21.70;;;10.70;;
78167;SDS011;67410;42.698;23.378;2024-03-06T09:44:07;22.67;;;10.82;;
78167;SDS011;67410;42.698;23.378;2024-03-06T09:49:02;20.48;;;10.00;;
78167;SDS011;67410;42.698;23.378;2024-03-06T09:51:29;21.45;;;10.10;;
78167;SDS011;67410;42.698;23.378;2024-03-06T09:53:56;18.08;;;9.45;;
78167;SDS011;67410;42.698;23.378;2024-03-06T09:56:22;19.83;;;10.82;;
78167;SDS011;67410;42.698;23.378;2024-03-06T09:58:48;17.02;;;8.73;;
78167;SDS011;67410;42.698;23.378;2024-03-06T10:01:14;30.08;;;9.88;;
78167;SDS011;67410;42.698;23.378;2024-03-06T10:03:41;19.92;;;10.77;;
78167;SDS011;67410;42.698;23.378;2024-03-06T10:06:07;20.63;;;11.07;;
78167;SDS011;67410;42.698;23.378;2024-03-06T10:08:34;17.13;;;9.98;;
78167;SDS011;67410;42.698;23.378;2024-03-06T10:11:00;19.42;;;11.00;;
78167;SDS011;67410;42.698;23.378;2024-03-06T10:13:30;22.30;;;10.52;;
78167;SDS011;67410;42.698;23.378;2024-03-06T10:16:00;20.67;;;9.13;;
78167;SDS011;67410;42.698;23.378;2024-03-06T10:18:27;17.88;;;8.18;;
78167;SDS011;67410;42.698;23.378;2024-03-06T10:20:54;17.02;;;8.55;;
78167;SDS011;67410;42.698;23.378;2024-03-06T10:23:21;16.55;;;7.47;;
78167;SDS011;67410;42.698;23.378;2024-03-06T10:25:47;16.23;;;7.57;;
78167;SDS011;67410;42.698;23.378;2024-03-06T10:28:21;15.23;;;7.45;;
78167;SDS011;67410;42.698;23.378;2024-03-06T10:30:49;16.08;;;7.75;;
78167;SDS011;67410;42.698;23.378;2024-03-06T10:33:16;17.02;;;6.05;;
78167;SDS011;67410;42.698;23.378;2024-03-06T10:35:44;10.32;;;5.88;;
78167;SDS011;67410;42.698;23.378;2024-03-06T10:38:12;12.23;;;7.18;;
78167;SDS011;67410;42.698;23.378;2024-03-06T10:40:39;15.05;;;7.85;;
78167;SDS011;67410;42.698;23.378;2024-03-06T10:43:07;13.57;;;7.13;;
78167;SDS011;67410;42.698;23.378;2024-03-06T10:48:14;18.95;;;8.68;;
78167;SDS011;67410;42.698;23.378;2024-03-06T10:50:41;13.50;;;7.82;;
78167;SDS011;67410;42.698;23.378;2024-03-06T10:53:11;11.35;;;6.47;;
78167;SDS011;67410;42.698;23.378;2024-03-06T10:55:42;13.48;;;7.00;;
78167;SDS011;67410;42.698;23.378;2024-03-06T10:58:13;11.57;;;6.95;;
78167;SDS011;67410;42.698;23.378;2024-03-06T11:00:45;14.13;;;6.97;;
78167;SDS011;67410;42.698;23.378;2024-03-06T11:03:13;12.27;;;6.95;;
78167;SDS011;67410;42.698;23.378;2024-03-06T11:05:41;12.40;;;6.72;;
78167;SDS011;67410;42.698;23.378;2024-03-06T11:08:11;12.43;;;6.75;;
78167;SDS011;67410;42.698;23.378;2024-03-06T11:10:39;21.20;;;7.93;;
78167;SDS011;67410;42.698;23.378;2024-03-06T11:15:52;14.48;;;7.05;;
78167;SDS011;67410;42.698;23.378;2024-03-06T11:23:30;13.07;;;5.72;;
78167;SDS011;67410;42.698;23.378;2024-03-06T11:26:01;13.55;;;6.25;;
78167;SDS011;67410;42.698;23.378;2024-03-06T11:28:29;14.68;;;6.55;;
78167;SDS011;67410;42.698;23.378;2024-03-06T11:33:38;14.23;;;6.03;;
78167;SDS011;67410;42.698;23.378;2024-03-06T11:38:52;9.98;;;5.90;;
78167;SDS011;67410;42.698;23.378;2024-03-06T11:41:24;11.50;;;6.15;;
78167;SDS011;67410;42.698;23.378;2024-03-06T11:43:54;11.48;;;6.22;;
78167;SDS011;67410;42.698;23.378;2024-03-06T11:46:40;9.90;;;5.78;;
78167;SDS011;67410;42.698;23.378;2024-03-06T11:49:14;9.38;;;5.57;;
78167;SDS011;67410;42.698;23.378;2024-03-06T11:51:44;10.45;;;5.43;;
78167;SDS011;67410;42.698;23.378;2024-03-06T11:54:11;12.82;;;6.10;;
78167;SDS011;67410;42.698;23.378;2024-03-06T11:56:42;11.70;;;6.60;;
78167;SDS011;67410;42.698;23.378;2024-03-06T11:59:12;10.77;;;6.28;;
78167;SDS011;67410;42.698;23.378;2024-03-06T12:01:38;9.27;;;5.82;;
78167;SDS011;67410;42.698;23.378;2024-03-06T12:04:06;9.52;;;6.60;;
78167;SDS011;67410;42.698;23.378;2024-03-06T12:06:32;9.23;;;5.78;;
78167;SDS011;67410;42.698;23.378;2024-03-06T12:08:59;10.70;;;5.60;;
78167;SDS011;67410;42.698;23.378;2024-03-06T12:11:25;10.57;;;5.88;;
78167;SDS011;67410;42.698;23.378;2024-03-06T12:13:54;8.98;;;5.72;;
78167;SDS011;67410;42.698;23.378;2024-03-06T12:16:21;14.13;;;6.18;;
78167;SDS011;67410;42.698;23.378;2024-03-06T12:18:54;13.93;;;6.38;;
78167;SDS011;67410;42.698;23.378;2024-03-06T12:21:33;8.05;;;5.18;;
78167;SDS011;67410;42.698;23.378;2024-03-06T12:24:06;12.20;;;5.88;;
78167;SDS011;67410;42.698;23.378;2024-03-06T12:26:34;13.73;;;6.05;;
78167;SDS011;67410;42.698;23.378;2024-03-06T12:29:04;14.50;;;7.00;;
78167;SDS011;67410;42.698;23.378;2024-03-06T12:31:31;10.57;;;6.22;;
78167;SDS011;67410;42.698;23.378;2024-03-06T12:33:59;13.98;;;5.45;;
78167;SDS011;67410;42.698;23.378;2024-03-06T12:36:25;18.73;;;8.13;;
78167;SDS011;67410;42.698;23.378;2024-03-06T12:38:54;9.35;;;5.68;;
78167;SDS011;67410;42.698;23.378;2024-03-06T12:41:22;10.10;;;5.63;;
78167;SDS011;67410;42.698;23.378;2024-03-06T12:43:49;16.08;;;6.70;;
78167;SDS011;67410;42.698;23.378;2024-03-06T12:46:15;12.38;;;6.10;;
78167;SDS011;67410;42.698;23.378;2024-03-06T12:48:41;13.63;;;6.45;;
78167;SDS011;67410;42.698;23.378;2024-03-06T12:51:07;11.43;;;5.97;;
78167;SDS011;67410;42.698;23.378;2024-03-06T12:53:33;9.35;;;4.78;;
78167;SDS011;67410;42.698;23.378;2024-03-06T12:56:00;9.75;;;5.07;;
78167;SDS011;67410;42.698;23.378;2024-03-06T12:58:27;10.50;;;5.38;;
78167;SDS011;67410;42.698;23.378;2024-03-06T13:00:53;13.82;;;6.47;;
78167;SDS011;67410;42.698;23.378;2024-03-06T13:03:20;28.23;;;10.57;;
78167;SDS011;67410;42.698;23.378;2024-03-06T13:05:46;9.77;;;5.82;;
78167;SDS011;67410;42.698;23.378;2024-03-06T13:08:12;12.15;;;6.85;;
78167;SDS011;67410;42.698;23.378;2024-03-06T13:10:40;9.18;;;5.38;;
78167;SDS011;67410;42.698;23.378;2024-03-06T13:13:06;20.27;;;5.75;;
78167;SDS011;67410;42.698;23.378;2024-03-06T13:15:33;10.35;;;4.72;;
78167;SDS011;67410;42.698;23.378;2024-03-06T13:18:05;10.75;;;4.70;;
78167;SDS011;67410;42.698;23.378;2024-03-06T13:20:32;16.77;;;5.50;;
78167;SDS011;67410;42.698;23.378;2024-03-06T13:22:59;22.50;;;11.18;;
78167;SDS011;67410;42.698;23.378;2024-03-06T13:25:25;12.98;;;5.22;;
78167;SDS011;67410;42.698;23.378;2024-03-06T13:27:52;11.02;;;4.50;;
78167;SDS011;67410;42.698;23.378;2024-03-06T13:30:19;6.90;;;4.13;;
78167;SDS011;67410;42.698;23.378;2024-03-06T13:32:46;9.20;;;5.72;;
78167;SDS011;67410;42.698;23.378;2024-03-06T13:35:12;12.82;;;6.63;;
78167;SDS011;67410;42.698;23.378;2024-03-06T13:37:39;11.98;;;4.80;;
78167;SDS011;67410;42.698;23.378;2024-03-06T13:40:06;9.63;;;5.13;;
78167;SDS011;67410;42.698;23.378;2024-03-06T13:42:37;8.65;;;4.70;;
78167;SDS011;67410;42.698;23.378;2024-03-06T13:47:30;15.35;;;6.88;;
78167;SDS011;67410;42.698;23.378;2024-03-06T13:49:56;9.07;;;4.72;;
78167;SDS011;67410;42.698;23.378;2024-03-06T13:52:22;16.48;;;6.70;;
78167;SDS011;67410;42.698;23.378;2024-03-06T13:54:49;34.63;;;11.85;;
78167;SDS011;67410;42.698;23.378;2024-03-06T13:57:15;16.23;;;6.80;;
78167;SDS011;67410;42.698;23.378;2024-03-06T13:59:42;13.35;;;5.43;;
78167;SDS011;67410;42.698;23.378;2024-03-06T14:02:08;41.22;;;13.00;;
78167;SDS011;67410;42.698;23.378;2024-03-06T14:04:34;12.18;;;5.28;;
78167;SDS011;67410;42.698;23.378;2024-03-06T14:07:00;32.47;;;10.35;;
78167;SDS011;67410;42.698;23.378;2024-03-06T14:09:26;14.05;;;5.43;;
78167;SDS011;67410;42.698;23.378;2024-03-06T14:11:53;11.55;;;5.68;;
78167;SDS011;67410;42.698;23.378;2024-03-06T14:14:20;10.10;;;5.55;;
78167;SDS011;67410;42.698;23.378;2024-03-06T14:16:46;8.63;;;4.72;;
78167;SDS011;67410;42.698;23.378;2024-03-06T14:19:12;19.58;;;7.30;;
78167;SDS011;67410;42.698;23.378;2024-03-06T14:21:39;12.07;;;5.38;;
78167;SDS011;67410;42.698;23.378;2024-03-06T14:24:05;23.98;;;7.32;;
78167;SDS011;67410;42.698;23.378;2024-03-06T14:26:32;8.10;;;4.60;;
78167;SDS011;67410;42.698;23.378;2024-03-06T14:29:00;21.17;;;9.25;;
78167;SDS011;67410;42.698;23.378;2024-03-06T14:31:28;43.40;;;14.07;;
78167;SDS011;67410;42.698;23.378;2024-03-06T14:33:54;18.05;;;7.57;;
78167;SDS011;67410;42.698;23.378;2024-03-06T14:36:21;10.63;;;4.93;;
78167;SDS011;67410;42.698;23.378;2024-03-06T14:38:47;10.85;;;5.40;;
78167;SDS011;67410;42.698;23.378;2024-03-06T14:41:13;9.90;;;5.57;;